Time;durP1;ratioP1;P1;durP2;ratioP2;P2;SDS_P1;SDS_P2;PMS_P1;PMS_P2;Temp;Humidity;BMP_temperature;BMP_pressure;BME280_temperature;BME280_humidity;BME280_pressure;Samples;Min_cycle;Max_cycle;Signal;HPM_P1;HPM_P2
2023/01/12 00:01:19;;;;;;;5.28;1.38;;;8.40;99.90;;;;;;5093944;28;20024;-35
2023/01/12 00:03:44;;;;;;;7.00;1.55;;;8.40;99.90;;;;;;5094514;28;20405;-35
2023/01/12 00:06:10;;;;;;;8.23;1.92;;;8.40;99.90;;;;;;5094935;28;20028;-35
2023/01/12 00:08:37;;;;;;;7.18;1.40;;;8.40;99.90;;;;;;5093134;28;20469;-35
2023/01/12 00:11:03;;;;;;;4.85;1.52;;;8.40;99.90;;;;;;5093173;28;20027;-35
2023/01/12 00:13:29;;;;;;;6.60;1.50;;;8.40;99.90;;;;;;5093122;28;20362;-35
2023/01/12 00:18:41;;;;;;;7.13;1.27;;;8.40;99.90;;;;;;5093675;28;20031;-35
2023/01/12 00:21:07;;;;;;;5.05;1.55;;;8.40;99.90;;;;;;5093201;28;20374;-35
2023/01/12 00:23:33;;;;;;;5.97;1.48;;;8.40;99.90;;;;;;5091833;28;20102;-35
2023/01/12 00:25:58;;;;;;;6.38;1.48;;;8.40;99.90;;;;;;5093419;28;20031;-34
2023/01/12 00:28:26;;;;;;;2.60;1.40;;;8.40;99.90;;;;;;5092806;28;20122;-35
2023/01/12 00:30:51;;;;;;;5.85;1.52;;;8.40;99.90;;;;;;5091441;28;20504;-35
2023/01/12 00:33:18;;;;;;;5.13;1.60;;;8.40;99.90;;;;;;5092774;28;20032;-35
2023/01/12 00:35:44;;;;;;;6.03;1.60;;;8.40;99.90;;;;;;5093581;28;20020;-35
2023/01/12 00:38:10;;;;;;;4.93;1.40;;;8.40;99.90;;;;;;5093955;28;20561;-35
2023/01/12 00:40:35;;;;;;;7.00;1.80;;;8.40;99.90;;;;;;5093559;28;20035;-35
2023/01/12 00:45:49;;;;;;;;;;;8.40;99.90;;;;;;5093106;28;20075;-35
2023/01/12 00:48:15;;;;;;;6.03;1.58;;;8.40;99.90;;;;;;5092330;28;20363;-35
2023/01/12 00:50:41;;;;;;;5.70;1.52;;;8.40;99.90;;;;;;5092431;28;20063;-34
2023/01/12 00:53:06;;;;;;;3.55;1.30;;;8.40;99.90;;;;;;5092386;28;20031;-34
2023/01/12 00:55:32;;;;;;;5.10;1.50;;;8.40;99.90;;;;;;5092271;28;20048;-34
2023/01/12 00:57:57;;;;;;;6.88;1.33;;;8.40;99.90;;;;;;5091778;28;20031;-34
2023/01/12 01:00:23;;;;;;;7.07;1.27;;;8.40;99.90;;;;;;5092281;28;20062;-35
2023/01/12 01:02:49;;;;;;;8.50;1.30;;;8.40;99.90;;;;;;5092372;28;20016;-35
2023/01/12 01:05:16;;;;;;;5.45;1.58;;;8.40;99.90;;;;;;5093588;28;20045;-35
2023/01/12 01:07:42;;;;;;;6.00;1.70;;;8.40;99.90;;;;;;5091821;28;20028;-35
2023/01/12 01:10:09;;;;;;;6.43;1.42;;;8.40;99.90;;;;;;5092344;28;20024;-35
2023/01/12 01:12:35;;;;;;;8.02;1.60;;;8.40;99.90;;;;;;5091860;28;20074;-35
2023/01/12 01:15:01;;;;;;;10.48;1.55;;;8.40;99.90;;;;;;5092009;28;20538;-35
2023/01/12 01:17:27;;;;;;;5.85;1.70;;;8.40;99.90;;;;;;5091586;28;20070;-35
2023/01/12 01:19:53;;;;;;;5.90;1.48;;;8.40;99.90;;;;;;5093300;28;20027;-35
2023/01/12 01:22:20;;;;;;;7.68;1.40;;;8.40;99.90;;;;;;5091993;28;20407;-35
2023/01/12 01:24:49;;;;;;;7.85;1.55;;;8.40;99.90;;;;;;5092071;28;20103;-35
2023/01/12 01:27:14;;;;;;;7.28;1.30;;;8.40;99.90;;;;;;5093780;28;20415;-35
2023/01/12 01:29:40;;;;;;;7.15;1.80;;;8.40;99.90;;;;;;5091765;28;20027;-34
2023/01/12 01:32:06;;;;;;;5.93;1.45;;;8.40;99.90;;;;;;5091740;28;20107;-34
2023/01/12 01:34:32;;;;;;;6.10;1.52;;;8.40;99.90;;;;;;5091691;28;20024;-35
2023/01/12 01:36:58;;;;;;;6.75;1.15;;;8.40;99.90;;;;;;5092280;28;20047;-35
2023/01/12 01:39:24;;;;;;;4.50;1.10;;;8.40;99.90;;;;;;5091698;28;20543;-34
2023/01/12 01:41:50;;;;;;;4.47;1.40;;;8.40;99.90;;;;;;5091509;28;20043;-34
2023/01/12 01:44:30;;;;;;;9.10;2.15;;;8.40;99.90;;;;;;5092359;28;20020;-35
2023/01/12 01:47:05;;;;;;;5.55;1.40;;;8.40;99.90;;;;;;5091303;28;20035;-35
2023/01/12 01:49:36;;;;;;;10.05;1.77;;;8.40;99.90;;;;;;5092154;28;20028;-34
2023/01/12 01:52:07;;;;;;;6.45;1.27;;;8.40;99.90;;;;;;5091231;28;20103;-36
2023/01/12 01:54:38;;;;;;;5.22;1.35;;;8.40;99.90;;;;;;5091409;28;20390;-34
2023/01/12 01:57:05;;;;;;;5.68;1.40;;;8.40;99.90;;;;;;5091960;28;20020;-36
2023/01/12 01:59:35;;;;;;;6.97;1.52;;;8.40;99.90;;;;;;5091515;28;20070;-35
2023/01/12 02:02:01;;;;;;;5.90;1.17;;;8.40;99.90;;;;;;5093832;28;20034;-35
2023/01/12 02:04:27;;;;;;;6.15;1.50;;;8.40;99.90;;;;;;5091262;28;20032;-35
2023/01/12 02:06:54;;;;;;;5.88;1.38;;;8.40;99.90;;;;;;5091928;28;20048;-34
2023/01/12 02:09:25;;;;;;;6.00;1.00;;;8.40;99.90;;;;;;5091668;28;20020;-35
2023/01/12 02:17:24;;;;;;;3.72;1.30;;;8.40;99.90;;;;;;5090887;28;20101;-35
2023/01/12 02:20:32;;;;;;;8.90;1.67;;;8.40;99.90;;;;;;5091228;28;20482;-35
2023/01/12 02:23:26;;;;;;;7.63;1.67;;;8.40;99.90;;;;;;5091174;28;20474;-35
2023/01/12 02:26:16;;;;;;;4.78;1.20;;;8.40;99.90;;;;;;5090985;28;20481;-35
2023/01/12 02:29:07;;;;;;;5.05;1.40;;;8.40;99.90;;;;;;5091102;28;20036;-35
2023/01/12 02:32:00;;;;;;;8.00;1.55;;;8.40;99.90;;;;;;5091463;28;20020;-35
2023/01/12 02:34:46;;;;;;;6.03;1.42;;;8.30;99.90;;;;;;5092931;28;20055;-35
2023/01/12 02:37:26;;;;;;;6.82;1.33;;;8.40;99.90;;;;;;5093134;28;20028;-35
2023/01/12 02:39:58;;;;;;;8.73;1.50;;;8.40;99.90;;;;;;5089831;28;20390;-35
2023/01/12 02:42:42;;;;;;;7.97;1.83;;;8.40;99.90;;;;;;5092091;28;20427;-36
2023/01/12 02:45:23;;;;;;;6.53;1.58;;;8.40;99.90;;;;;;5091025;28;20020;-35
2023/01/12 02:48:10;;;;;;;4.05;1.30;;;8.40;99.90;;;;;;5091098;28;20031;-35
2023/01/12 02:50:40;;;;;;;4.97;1.45;;;8.40;99.90;;;;;;5090855;28;20551;-35
2023/01/12 02:53:34;;;;;;;6.90;1.58;;;8.40;99.90;;;;;;5091149;28;20553;-35
2023/01/12 02:56:03;;;;;;;3.85;1.48;;;8.40;99.90;;;;;;5087398;28;20028;-35
2023/01/12 02:58:31;;;;;;;10.88;1.67;;;8.40;99.90;;;;;;5091952;28;20366;-35
2023/01/12 03:00:59;;;;;;;5.85;1.80;;;8.40;99.90;;;;;;5090723;28;20425;-35
2023/01/12 03:03:25;;;;;;;8.07;1.60;;;8.40;99.90;;;;;;5091722;28;20052;-35
2023/01/12 03:05:54;;;;;;;7.75;2.05;;;8.40;99.90;;;;;;5094251;28;20521;-35
2023/01/12 03:08:24;;;;;;;9.40;1.80;;;8.30;99.90;;;;;;5094765;28;20145;-35
2023/01/12 03:10:56;;;;;;;9.23;1.85;;;8.40;99.90;;;;;;5095098;28;20478;-35
2023/01/12 03:13:24;;;;;;;6.13;1.67;;;8.40;99.90;;;;;;5096153;28;20020;-35
2023/01/12 03:15:53;;;;;;;4.90;1.30;;;8.40;99.90;;;;;;5094143;28;20119;-35
2023/01/12 03:18:45;;;;;;;5.35;1.52;;;8.40;99.90;;;;;;5095639;28;20024;-35
2023/01/12 03:21:32;;;;;;;5.90;1.60;;;8.40;99.90;;;;;;5094197;28;20028;-35
2023/01/12 03:24:09;;;;;;;6.35;1.88;;;8.40;99.90;;;;;;5096801;28;20103;-34
2023/01/12 03:26:38;;;;;;;7.97;1.55;;;8.40;99.90;;;;;;5094852;28;20031;-35
2023/01/12 03:29:12;;;;;;;9.90;1.92;;;8.40;99.90;;;;;;5093881;28;20093;-35
2023/01/12 03:31:38;;;;;;;7.45;2.03;;;8.40;99.90;;;;;;5096075;28;20059;-35
2023/01/12 03:34:04;;;;;;;11.07;1.60;;;8.30;99.90;;;;;;5094705;28;20060;-34
2023/01/12 03:36:41;;;;;;;10.02;2.22;;;8.40;99.90;;;;;;5094400;28;20057;-35
2023/01/12 03:39:30;;;;;;;9.32;2.10;;;8.40;99.90;;;;;;5094671;28;20398;-35
2023/01/12 03:42:22;;;;;;;7.03;1.73;;;8.40;99.90;;;;;;5093816;28;20030;-35
2023/01/12 03:45:25;;;;;;;6.60;1.55;;;8.40;99.90;;;;;;5094149;28;20020;-35
2023/01/12 03:47:59;;;;;;;8.10;1.77;;;8.40;99.90;;;;;;5093087;28;20044;-35
2023/01/12 03:50:30;;;;;;;10.00;1.93;;;8.40;99.90;;;;;;5094153;28;20028;-35
2023/01/12 03:52:58;;;;;;;10.75;1.90;;;8.30;99.90;;;;;;5094094;28;20099;-35
2023/01/12 03:55:27;;;;;;;6.50;1.50;;;8.40;99.90;;;;;;5093996;28;20046;-35
2023/01/12 03:57:53;;;;;;;7.68;1.52;;;8.40;99.90;;;;;;5094435;28;20105;-35
2023/01/12 04:00:20;;;;;;;6.20;1.95;;;8.40;99.90;;;;;;5094055;28;20363;-35
2023/01/12 04:02:46;;;;;;;11.02;1.88;;;8.40;99.90;;;;;;5093779;28;20038;-35
2023/01/12 04:05:13;;;;;;;8.57;1.77;;;8.40;99.90;;;;;;5093931;28;20020;-35
2023/01/12 04:07:39;;;;;;;8.73;1.75;;;8.40;99.90;;;;;;5094186;28;20103;-35
2023/01/12 04:10:05;;;;;;;8.05;1.50;;;8.40;99.90;;;;;;5094199;28;20078;-35
2023/01/12 04:12:31;;;;;;;9.00;2.00;;;8.40;99.90;;;;;;5094457;28;20066;-35
2023/01/12 04:14:57;;;;;;;6.70;1.67;;;8.40;99.90;;;;;;5093967;28;20020;-34
2023/01/12 04:17:24;;;;;;;10.02;1.73;;;8.40;99.90;;;;;;5093329;28;20535;-35
2023/01/12 04:19:50;;;;;;;5.95;1.65;;;8.40;99.90;;;;;;5093070;28;20023;-35
2023/01/12 04:25:01;;;;;;;6.22;1.42;;;8.40;99.90;;;;;;5093620;28;20036;-35
2023/01/12 04:27:27;;;;;;;8.90;1.75;;;8.40;99.90;;;;;;5092704;28;20028;-35
2023/01/12 04:29:53;;;;;;;8.15;1.67;;;8.40;99.90;;;;;;5092820;28;20032;-35
2023/01/12 04:32:19;;;;;;;8.50;1.95;;;8.30;99.90;;;;;;5092818;28;20463;-35
2023/01/12 04:34:45;;;;;;;9.05;1.77;;;8.40;99.90;;;;;;5092685;28;20032;-35
2023/01/12 04:37:11;;;;;;;9.35;1.92;;;8.30;99.90;;;;;;5092627;28;20039;-35
2023/01/12 04:39:37;;;;;;;7.47;1.60;;;8.40;99.90;;;;;;5092622;28;20073;-35
2023/01/12 04:42:03;;;;;;;8.07;1.42;;;8.40;99.90;;;;;;5092619;28;20028;-36
2023/01/12 04:44:29;;;;;;;4.22;1.45;;;8.40;99.90;;;;;;5093164;28;20029;-35
2023/01/12 04:46:55;;;;;;;6.68;1.77;;;8.40;99.90;;;;;;5092297;28;20073;-35
2023/01/12 04:49:21;;;;;;;8.38;1.50;;;8.40;99.90;;;;;;5093085;28;20039;-35
2023/01/12 04:51:46;;;;;;;10.50;1.70;;;8.40;99.90;;;;;;5092432;28;20020;-35
2023/01/12 04:54:12;;;;;;;9.15;1.88;;;8.40;99.90;;;;;;5092987;28;20074;-35
2023/01/12 04:56:38;;;;;;;10.05;1.85;;;8.40;99.90;;;;;;5092484;28;20103;-35
2023/01/12 04:59:06;;;;;;;11.50;2.10;;;8.40;99.90;;;;;;5092145;28;20551;-35
2023/01/12 05:01:31;;;;;;;6.45;1.70;;;8.40;99.90;;;;;;5092468;28;20024;-35
2023/01/12 05:03:59;;;;;;;7.35;1.77;;;8.30;99.90;;;;;;5092089;28;20028;-35
2023/01/12 05:06:25;;;;;;;7.70;1.75;;;8.40;99.90;;;;;;5092945;28;20016;-35
2023/01/12 05:11:36;;;;;;;9.20;1.85;;;8.40;99.90;;;;;;5092442;28;20039;-35
2023/01/12 05:14:02;;;;;;;8.18;1.63;;;8.40;99.90;;;;;;5092588;28;20083;-35
2023/01/12 05:16:28;;;;;;;8.00;1.80;;;8.40;99.90;;;;;;5091719;28;20032;-35
2023/01/12 05:18:55;;;;;;;8.68;2.22;;;8.40;99.90;;;;;;5091962;28;20366;-35
2023/01/12 05:21:22;;;;;;;9.07;1.40;;;8.40;99.90;;;;;;5092945;28;20036;-35
2023/01/12 05:23:50;;;;;;;9.70;1.85;;;8.30;99.90;;;;;;5092583;28;20032;-35
2023/01/12 05:26:15;;;;;;;8.27;1.83;;;8.40;99.90;;;;;;5091615;28;20048;-35
2023/01/12 05:28:41;;;;;;;9.65;1.75;;;8.30;99.90;;;;;;5092160;28;20523;-35
2023/01/12 05:31:12;;;;;;;9.82;1.67;;;8.40;99.90;;;;;;5092238;28;20072;-35
2023/01/12 05:33:39;;;;;;;9.40;1.67;;;8.40;99.90;;;;;;5092772;28;20028;-35
2023/01/12 05:36:13;;;;;;;11.52;1.88;;;8.40;99.90;;;;;;5091698;28;20157;-35
2023/01/12 05:38:39;;;;;;;11.27;1.73;;;8.40;99.90;;;;;;5092031;28;20056;-35
2023/01/12 05:41:06;;;;;;;7.65;1.95;;;8.40;99.90;;;;;;5091634;28;20016;-35
2023/01/12 05:43:50;;;;;;;7.05;1.50;;;8.40;99.90;;;;;;5091584;28;20080;-35
2023/01/12 05:46:21;;;;;;;8.93;1.75;;;8.40;99.90;;;;;;5091724;28;20141;-35
2023/01/12 05:48:47;;;;;;;9.27;2.05;;;8.30;99.90;;;;;;5092342;28;20039;-35
2023/01/12 05:51:13;;;;;;;9.40;1.60;;;8.30;99.90;;;;;;5091601;28;20328;-35
2023/01/12 05:53:40;;;;;;;9.63;2.03;;;8.40;99.90;;;;;;5091433;28;20444;-35
2023/01/12 05:56:18;;;;;;;6.78;1.90;;;8.40;99.90;;;;;;5091148;28;20474;-35
2023/01/12 05:58:51;;;;;;;6.55;1.52;;;8.40;99.90;;;;;;5092379;28;20409;-35
2023/01/12 06:01:18;;;;;;;8.60;1.83;;;8.30;99.90;;;;;;5093424;28;20021;-35
2023/01/12 06:03:49;;;;;;;8.40;1.88;;;8.40;99.90;;;;;;5091335;28;20024;-35
2023/01/12 06:06:15;;;;;;;9.32;1.90;;;8.40;99.90;;;;;;5091010;28;20020;-35
2023/01/12 06:08:41;;;;;;;10.25;2.00;;;8.30;99.90;;;;;;5091525;28;20028;-35
2023/01/12 06:13:55;;;;;;;7.22;1.65;;;8.40;99.90;;;;;;5091362;28;20020;-35
2023/01/12 06:13:58;;;;;;;11.60;2.13;;;8.40;99.90;;;;;;5092777;28;20103;-35
2023/01/12 06:16:25;;;;;;;7.20;1.83;;;8.30;99.90;;;;;;5091215;28;20032;-35
2023/01/12 06:18:50;;;;;;;7.05;1.65;;;8.40;99.90;;;;;;5091997;28;20022;-35
2023/01/12 06:21:16;;;;;;;8.32;2.38;;;8.30;99.90;;;;;;5091799;28;20028;-35
2023/01/12 06:23:42;;;;;;;12.25;2.45;;;8.40;99.90;;;;;;5091615;28;20024;-35
2023/01/12 06:26:08;;;;;;;8.77;2.50;;;8.30;99.90;;;;;;5091366;28;20477;-35
2023/01/12 06:28:36;;;;;;;12.63;2.42;;;8.30;99.90;;;;;;5091078;28;20020;-35
2023/01/12 06:31:04;;;;;;;12.48;2.35;;;8.30;99.90;;;;;;5092977;28;20396;-35
2023/01/12 06:33:31;;;;;;;12.73;2.35;;;8.30;99.90;;;;;;5092315;28;20091;-35
2023/01/12 06:35:57;;;;;;;8.25;2.50;;;8.30;99.90;;;;;;5092264;28;20032;-35
2023/01/12 06:38:25;;;;;;;10.20;2.50;;;8.40;99.90;;;;;;5091723;28;20028;-35
2023/01/12 06:40:51;;;;;;;9.85;2.22;;;8.30;99.90;;;;;;5095561;28;20024;-35
2023/01/12 06:43:17;;;;;;;7.47;2.28;;;8.30;99.90;;;;;;5095205;28;20099;-35
2023/01/12 06:45:43;;;;;;;9.57;2.00;;;8.30;99.90;;;;;;5094759;28;20489;-35
2023/01/12 06:48:09;;;;;;;13.45;2.50;;;8.30;99.90;;;;;;5094652;28;20024;-35
2023/01/12 06:50:36;;;;;;;10.02;2.08;;;8.40;99.90;;;;;;5096029;28;20024;-35
2023/01/12 06:53:03;;;;;;;12.90;2.33;;;8.30;99.90;;;;;;5094775;28;20032;-35
2023/01/12 06:55:29;;;;;;;9.60;1.95;;;8.30;99.90;;;;;;5094725;28;20378;-35
2023/01/12 06:57:55;;;;;;;6.53;2.10;;;8.30;99.90;;;;;;5095326;28;20031;-34
2023/01/12 07:00:21;;;;;;;9.00;2.08;;;8.30;99.90;;;;;;5095189;28;20030;-35
2023/01/12 07:02:50;;;;;;;10.75;2.35;;;8.30;99.90;;;;;;5094497;28;20028;-35
2023/01/12 07:05:16;;;;;;;6.55;1.52;;;8.30;99.90;;;;;;5094528;28;20020;-35
2023/01/12 07:07:42;;;;;;;8.13;2.28;;;8.30;99.90;;;;;;5094985;28;20567;-35
2023/01/12 07:10:12;;;;;;;8.93;2.22;;;8.40;99.90;;;;;;5094495;28;20111;-35
2023/01/12 07:12:38;;;;;;;9.02;1.90;;;8.30;99.90;;;;;;5094482;28;20103;-35
2023/01/12 07:15:04;;;;;;;7.97;1.90;;;8.40;99.90;;;;;;5095077;28;20074;-35
2023/01/12 07:17:30;;;;;;;8.52;2.15;;;8.30;99.90;;;;;;5093972;28;20078;-35
2023/01/12 07:19:56;;;;;;;6.82;2.05;;;8.30;99.90;;;;;;5094260;28;20055;-35
2023/01/12 07:22:21;;;;;;;12.10;1.95;;;8.30;99.90;;;;;;5095094;28;20035;-35
2023/01/12 07:24:47;;;;;;;11.68;2.35;;;8.30;99.90;;;;;;5094159;28;20633;-35
2023/01/12 07:27:13;;;;;;;7.60;2.05;;;8.30;99.90;;;;;;5094388;28;20495;-36
2023/01/12 07:29:38;;;;;;;7.43;1.98;;;8.30;99.90;;;;;;5095287;28;20080;-35
2023/01/12 07:32:04;;;;;;;6.53;1.85;;;8.30;99.90;;;;;;5094566;28;20024;-35
2023/01/12 07:34:30;;;;;;;9.00;2.08;;;8.30;99.90;;;;;;5093940;28;20027;-35
2023/01/12 07:36:56;;;;;;;11.55;2.55;;;8.30;99.90;;;;;;5094181;28;20393;-36
2023/01/12 07:39:22;;;;;;;6.95;2.10;;;8.30;99.90;;;;;;5094752;28;20024;-35
2023/01/12 07:44:31;;;;;;;10.60;1.95;;;8.30;99.90;;;;;;5095008;28;20493;-34
2023/01/12 07:46:58;;;;;;;7.45;2.00;;;8.30;99.90;;;;;;5094281;28;20028;-35
2023/01/12 07:49:24;;;;;;;9.00;1.75;;;8.30;99.90;;;;;;5093624;28;20012;-35
2023/01/12 07:51:52;;;;;;;7.88;1.58;;;8.30;99.90;;;;;;5093386;28;20394;-35
2023/01/12 07:54:18;;;;;;;9.82;2.42;;;8.30;99.90;;;;;;5094403;28;20020;-35
2023/01/12 07:56:44;;;;;;;7.30;1.95;;;8.30;99.90;;;;;;5095674;28;20032;-35
2023/01/12 07:59:10;;;;;;;7.75;1.73;;;8.30;99.90;;;;;;5093353;28;20107;-34
2023/01/12 08:01:36;;;;;;;8.50;2.38;;;8.30;99.90;;;;;;5094686;28;20343;-35
2023/01/12 08:04:01;;;;;;;8.00;1.60;;;8.30;99.90;;;;;;5093426;28;20496;-35
2023/01/12 08:06:28;;;;;;;6.97;1.88;;;8.30;99.90;;;;;;5094033;28;20027;-35
2023/01/12 08:08:54;;;;;;;9.10;1.75;;;8.30;99.90;;;;;;5093652;28;20111;-35
2023/01/12 08:11:19;;;;;;;7.97;1.85;;;8.30;99.90;;;;;;5093184;28;20112;-34
2023/01/12 08:13:45;;;;;;;10.80;2.10;;;8.30;99.90;;;;;;5093225;28;20488;-35
2023/01/12 08:16:18;;;;;;;11.68;1.75;;;8.30;99.90;;;;;;5093222;28;20056;-35
2023/01/12 08:18:51;;;;;;;8.18;1.60;;;8.30;99.90;;;;;;5092844;28;20073;-34
2023/01/12 08:21:21;;;;;;;7.90;1.42;;;8.30;99.90;;;;;;5094180;28;20424;-35
2023/01/12 08:23:52;;;;;;;8.18;1.52;;;8.30;99.90;;;;;;5093367;28;20477;-34
2023/01/12 08:26:26;;;;;;;10.52;1.70;;;8.30;99.90;;;;;;5092869;28;20385;-34
2023/01/12 08:28:58;;;;;;;9.70;1.67;;;8.30;99.90;;;;;;5092899;28;20032;-34
2023/01/12 08:31:25;;;;;;;12.30;1.65;;;8.30;99.90;;;;;;5092939;28;20028;-35
2023/01/12 08:33:53;;;;;;;12.75;1.90;;;8.30;99.90;;;;;;5093183;28;20054;-35
2023/01/12 08:36:19;;;;;;;11.45;1.90;;;8.30;99.90;;;;;;5094476;28;20389;-35
2023/01/12 08:38:44;;;;;;;13.35;1.65;;;8.30;99.90;;;;;;5092538;28;20024;-35
2023/01/12 08:44:00;;;;;;;10.23;1.65;;;8.30;99.90;;;;;;5092725;28;20078;-35
2023/01/12 08:46:26;;;;;;;10.40;1.92;;;8.30;99.90;;;;;;5094007;28;20051;-34
2023/01/12 08:48:52;;;;;;;9.77;1.98;;;8.30;99.90;;;;;;5094032;28;20032;-34
2023/01/12 08:51:18;;;;;;;9.02;1.98;;;8.30;99.90;;;;;;5094330;28;20024;-35
2023/01/12 08:53:44;;;;;;;17.60;2.13;;;8.30;99.90;;;;;;5092102;28;20028;-35
2023/01/12 08:56:11;;;;;;;12.90;2.05;;;8.30;99.90;;;;;;5093044;28;20050;-34
2023/01/12 08:58:37;;;;;;;15.13;1.88;;;8.30;99.90;;;;;;5092176;28;20032;-35
2023/01/12 09:01:08;;;;;;;10.80;2.03;;;8.30;99.90;;;;;;5093527;28;20385;-35
2023/01/12 09:03:35;;;;;;;14.93;1.95;;;8.30;99.90;;;;;;5093237;28;20103;-34
2023/01/12 09:06:22;;;;;;;8.50;1.70;;;8.30;99.90;;;;;;5091978;28;20027;-35
2023/01/12 09:08:53;;;;;;;7.18;1.85;;;8.30;99.90;;;;;;5092099;28;20469;-35
2023/01/12 09:11:19;;;;;;;10.05;2.15;;;8.30;99.90;;;;;;5092730;28;20034;-34
2023/01/12 09:13:45;;;;;;;12.43;1.67;;;8.30;99.90;;;;;;5092951;28;20452;-34
2023/01/12 09:16:13;;;;;;;7.65;1.70;;;8.30;99.90;;;;;;5092053;28;20478;-34
2023/01/12 09:18:40;;;;;;;8.45;1.50;;;8.30;99.90;;;;;;5091872;28;20055;-34
2023/01/12 09:21:08;;;;;;;9.15;2.25;;;8.30;99.90;;;;;;5091940;28;20022;-35
2023/01/12 09:23:35;;;;;;;12.10;2.20;;;8.30;99.90;;;;;;5092200;28;20423;-33
2023/01/12 09:26:12;;;;;;;10.15;1.88;;;8.30;99.90;;;;;;5091702;28;20104;-35
2023/01/12 09:28:38;;;;;;;6.78;1.60;;;8.30;99.90;;;;;;5092854;28;20381;-35
2023/01/12 09:31:06;;;;;;;4.63;1.20;;;8.30;99.90;;;;;;5092682;28;20106;-35
2023/01/12 09:33:32;;;;;;;10.18;1.55;;;8.30;99.90;;;;;;5091735;28;20493;-35
2023/01/12 09:36:25;;;;;;;7.78;1.50;;;8.30;99.90;;;;;;5091419;28;20028;-34
2023/01/12 09:38:51;;;;;;;10.40;2.63;;;8.30;99.90;;;;;;5090733;28;20501;-35
2023/01/12 09:47:43;;;;;;;7.25;1.50;;;8.30;99.90;;;;;;5085704;28;20092;-35
2023/01/12 09:50:14;;;;;;;7.47;1.40;;;8.30;99.90;;;;;;5091528;28;20401;-34
2023/01/12 09:52:54;;;;;;;9.55;1.45;;;8.30;99.90;;;;;;5091448;28;20403;-35
2023/01/12 09:55:24;;;;;;;6.72;1.52;;;8.30;99.90;;;;;;5091459;28;20048;-35
2023/01/12 09:58:21;;;;;;;7.18;1.60;;;8.30;99.90;;;;;;5090961;28;20028;-34
2023/01/12 10:00:53;;;;;;;9.48;1.45;;;8.30;99.90;;;;;;5091382;28;20027;-35
2023/01/12 10:03:34;;;;;;;8.13;1.52;;;8.30;99.90;;;;;;5091142;28;20024;-35
2023/01/12 10:06:00;;;;;;;9.75;1.70;;;8.40;99.90;;;;;;5091690;28;20051;-35
2023/01/12 10:08:57;;;;;;;10.43;1.65;;;8.30;99.90;;;;;;5092430;28;20028;-34
2023/01/12 10:11:53;;;;;;;8.15;1.52;;;8.40;99.90;;;;;;5091200;28;20035;-34
2023/01/12 10:14:43;;;;;;;7.57;1.63;;;8.40;99.90;;;;;;5093613;28;20095;-35
2023/01/12 10:17:29;;;;;;;9.93;1.70;;;8.30;99.90;;;;;;5095283;28;20197;-34
2023/01/12 10:20:07;;;;;;;7.18;1.42;;;8.40;99.90;;;;;;5095444;28;20016;-34
2023/01/12 10:22:44;;;;;;;6.35;1.30;;;8.40;99.90;;;;;;5096655;28;20031;-35
2023/01/12 10:25:32;;;;;;;5.45;1.88;;;8.40;99.90;;;;;;5095376;28;20042;-34
2023/01/12 10:27:59;;;;;;;10.07;1.45;;;8.40;99.90;;;;;;5095085;28;20028;-34
2023/01/12 10:30:32;;;;;;;5.32;1.58;;;8.40;99.90;;;;;;5095141;28;20024;-35
2023/01/12 10:33:11;;;;;;;7.40;1.60;;;8.40;99.90;;;;;;5096731;28;20028;-34
2023/01/12 10:35:47;;;;;;;8.15;1.40;;;8.40;99.90;;;;;;5095429;28;20074;-34
2023/01/12 10:38:23;;;;;;;8.43;1.40;;;8.40;99.90;;;;;;5096665;28;20072;-34
2023/01/12 10:41:10;;;;;;;8.90;1.75;;;8.40;99.90;;;;;;5095686;28;20493;-34
2023/01/12 10:43:38;;;;;;;9.38;1.67;;;8.40;99.90;;;;;;5095088;28;20103;-34
2023/01/12 10:46:13;;;;;;;5.95;1.40;;;8.40;99.90;;;;;;5095437;28;20052;-34
2023/01/12 10:48:42;;;;;;;4.95;1.38;;;8.40;99.90;;;;;;5094867;28;20036;-34
2023/01/12 10:51:24;;;;;;;9.50;1.45;;;8.40;99.90;;;;;;5095050;28;20028;-35
2023/01/12 10:53:52;;;;;;;10.48;1.90;;;8.40;99.90;;;;;;5096008;28;20020;-35
2023/01/12 10:56:28;;;;;;;7.88;1.45;;;8.40;99.90;;;;;;5095574;28;20103;-34
2023/01/12 10:59:03;;;;;;;5.80;1.23;;;8.40;99.90;;;;;;5095874;28;20058;-35
2023/01/12 11:02:04;;;;;;;5.45;1.25;;;8.40;99.90;;;;;;5095009;28;20027;-35
2023/01/12 11:04:46;;;;;;;4.60;1.20;;;8.40;99.90;;;;;;5071727;28;20059;-35
2023/01/12 11:07:27;;;;;;;4.82;1.23;;;8.40;99.90;;;;;;5092418;28;20036;-34
2023/01/12 11:09:54;;;;;;;5.05;1.33;;;8.40;99.90;;;;;;5095912;28;20031;-34
2023/01/12 11:12:23;;;;;;;4.75;1.10;;;8.40;99.90;;;;;;5095708;28;20057;-34
2023/01/12 11:15:16;;;;;;;4.93;1.40;;;8.40;99.90;;;;;;5094432;28;20497;-34
2023/01/12 11:18:06;;;;;;;4.40;1.02;;;8.40;99.90;;;;;;5092993;28;20043;-34
2023/01/12 11:20:36;;;;;;;4.03;1.05;;;8.40;99.90;;;;;;5094265;28;20054;-35
2023/01/12 11:23:07;;;;;;;3.80;0.98;;;8.40;99.90;;;;;;5094189;28;20021;-34
2023/01/12 11:25:40;;;;;;;3.22;1.38;;;8.40;99.90;;;;;;5095394;28;20032;-34
2023/01/12 11:28:15;;;;;;;6.15;1.38;;;8.40;99.90;;;;;;5094025;28;20034;-35
2023/01/12 11:30:55;;;;;;;9.00;1.30;;;8.50;99.90;;;;;;5094045;28;20081;-35
2023/01/12 11:33:23;;;;;;;6.28;1.20;;;8.40;99.90;;;;;;5094198;28;20028;-34
2023/01/12 11:35:57;;;;;;;7.43;1.50;;;8.50;99.90;;;;;;5096575;28;20393;-35
2023/01/12 11:38:32;;;;;;;6.78;1.23;;;8.50;99.90;;;;;;5095978;28;20470;-35
2023/01/12 11:40:57;;;;;;;4.55;0.90;;;8.50;99.90;;;;;;5093914;28;20031;-34
2023/01/12 11:43:49;;;;;;;5.50;1.00;;;8.50;99.90;;;;;;5093685;28;20020;-35
2023/01/12 11:46:34;;;;;;;4.00;1.10;;;8.50;99.90;;;;;;5093610;28;20019;-35
2023/01/12 11:49:11;;;;;;;2.97;0.95;;;8.50;99.90;;;;;;5093632;28;20039;-35
2023/01/12 11:51:38;;;;;;;7.80;1.02;;;8.50;99.90;;;;;;5093597;28;20111;-34
2023/01/12 11:54:14;;;;;;;3.63;1.20;;;8.50;99.90;;;;;;5093319;28;20016;-35
2023/01/12 11:57:00;;;;;;;4.05;1.00;;;8.50;99.90;;;;;;5093242;28;20123;-34
2023/01/12 12:00:19;;;;;;;3.08;0.98;;;8.50;99.90;;;;;;5093356;28;20024;-34
2023/01/12 12:02:49;;;;;;;2.70;0.80;;;8.50;99.90;;;;;;5070843;28;20021;-35
2023/01/12 12:05:24;;;;;;;3.55;0.82;;;8.50;99.90;;;;;;5092070;28;20078;-35
2023/01/12 12:08:19;;;;;;;2.80;0.98;;;8.50;99.90;;;;;;5094030;28;20028;-35
2023/01/12 12:11:03;;;;;;;3.63;0.98;;;8.50;99.90;;;;;;5091847;28;20421;-34
2023/01/12 12:13:46;;;;;;;3.33;1.00;;;8.50;99.90;;;;;;5094982;28;20054;-34
2023/01/12 12:16:18;;;;;;;3.47;1.03;;;8.50;99.90;;;;;;5093069;28;20120;-34
2023/01/12 12:19:03;;;;;;;4.63;0.80;;;8.50;99.90;;;;;;5093006;28;20039;-34
2023/01/12 12:21:29;;;;;;;5.32;1.08;;;8.50;99.90;;;;;;5094626;28;20035;-34
2023/01/12 12:24:32;;;;;;;4.47;1.17;;;8.50;99.90;;;;;;5091936;28;20024;-34
2023/01/12 12:27:12;;;;;;;6.35;1.27;;;8.50;99.90;;;;;;5094389;28;20065;-34
2023/01/12 12:29:53;;;;;;;7.13;1.27;;;8.50;99.90;;;;;;5092897;28;20020;-35
2023/01/12 12:32:43;;;;;;;4.28;1.13;;;8.50;99.90;;;;;;5094271;28;20020;-35
2023/01/12 12:35:31;;;;;;;5.15;1.05;;;8.50;99.90;;;;;;5092902;28;20046;-34
2023/01/12 12:38:23;;;;;;;5.40;1.05;;;8.50;99.90;;;;;;5091773;28;20020;-34
2023/01/12 12:47:54;;;;;;;2.57;1.13;;;8.50;99.90;;;;;;5092578;28;20443;-34
2023/01/12 12:50:39;;;;;;;2.78;0.98;;;8.50;99.90;;;;;;5092514;28;20023;-35
2023/01/12 12:53:28;;;;;;;3.90;1.48;;;8.50;99.90;;;;;;5092366;28;20031;-35
2023/01/12 12:55:59;;;;;;;3.47;0.95;;;8.50;99.90;;;;;;5092276;28;20035;-35
2023/01/12 12:58:39;;;;;;;3.17;0.98;;;8.60;99.90;;;;;;5092973;28;20036;-35
2023/01/12 13:01:19;;;;;;;2.47;1.20;;;8.50;99.90;;;;;;5093152;28;20020;-34
2023/01/12 13:03:47;;;;;;;2.95;1.10;;;8.60;99.90;;;;;;5093702;28;20025;-34
2023/01/12 13:06:32;;;;;;;3.85;1.08;;;8.60;99.90;;;;;;5093250;28;20025;-34
2023/01/12 13:09:15;;;;;;;3.03;1.10;;;8.60;99.90;;;;;;5092639;28;20094;-34
2023/01/12 13:11:54;;;;;;;1.73;0.80;;;8.50;99.90;;;;;;5092407;28;20028;-34
2023/01/12 13:14:26;;;;;;;2.22;0.95;;;8.60;99.90;;;;;;5092234;28;20050;-35
2023/01/12 13:16:54;;;;;;;4.22;1.20;;;8.60;99.90;;;;;;5092043;28;20036;-34
2023/01/12 13:19:47;;;;;;;3.65;1.00;;;8.60;99.90;;;;;;5092225;28;20020;-34
2023/01/12 13:22:15;;;;;;;7.78;1.40;;;8.60;99.90;;;;;;5091122;28;20501;-34
2023/01/12 13:24:41;;;;;;;3.33;1.15;;;8.60;99.90;;;;;;5093064;28;20382;-35
2023/01/12 13:27:44;;;;;;;3.55;0.95;;;8.60;99.90;;;;;;5092569;28;20058;-35
2023/01/12 13:30:34;;;;;;;2.70;0.95;;;8.60;99.90;;;;;;5093488;28;20080;-34
2023/01/12 13:33:13;;;;;;;3.78;0.88;;;8.70;99.90;;;;;;5093026;28;20016;-35
2023/01/12 13:35:39;;;;;;;2.40;0.98;;;8.70;99.90;;;;;;5092181;28;20028;-34
2023/01/12 13:38:32;;;;;;;3.25;0.85;;;8.60;99.90;;;;;;5091722;28;20107;-34
2023/01/12 13:44:23;;;;;;;5.40;1.20;;;8.70;99.90;;;;;;5092414;28;20031;-35
2023/01/12 13:46:54;;;;;;;3.72;0.93;;;8.70;99.90;;;;;;5092699;28;20028;-34
2023/01/12 13:49:32;;;;;;;2.30;0.90;;;8.70;99.90;;;;;;5093959;28;20046;-34
2023/01/12 13:52:17;;;;;;;1.33;0.80;;;8.60;99.90;;;;;;5091920;28;20039;-35
2023/01/12 13:54:50;;;;;;;2.63;0.88;;;8.70;99.90;;;;;;5092682;28;20041;-35
2023/01/12 13:57:28;;;;;;;3.03;0.80;;;8.60;99.90;;;;;;5093208;28;20031;-34
2023/01/12 14:00:09;;;;;;;3.83;0.70;;;8.60;99.90;;;;;;5091883;28;20048;-34